Startpagina
METAR-TAF:

METAR-TAF

Vliegvelden :

Yap, Yap Island, Micronesië

breedte: 09-29N, lengte: 138-05E, hoogte: 28 m

Actueel weer

Dit bericht is 30 minuten geleden gemaakt, om 11:50 UTC
Wind 5 kt uit variabele richting
Temperatuur 28°C
Vochtigheid 84%
Druk 1009 hPa
Zicht: 19.3 km
Weinig wolken op 1600 ft
Verspreide wolken op 13000 ft
Gebroken wolken op 30000 ft

METAR: PTYA 211150Z VRB05KT 12SM FEW016 SCT130 BKN300 28/25 A2980 RMK SLP091 8/171 T02830253 10319 20282 52014

Tijdstip: 22:20 (12:20 UTC)

Verwachting

Dit bericht is 1 uur en het 0 minuten geleden gemaakt, om 11:20 UTC
Verwachting geldig van 21 om 12 UTC tot 22 om 12 UTC
Wind 5 kt uit het zuiden
Zicht: 10 km
Verspreide wolken op 1600 ft
Verspreide wolken op 13000 ft
Gebroken wolken op 30000 ft
buien in de omgeving

TAF: PTYA 211120Z 2112/2212 19005KT P6SM VCSH SCT016 SCT130 BKN300

Waarnemingen en weersverwachtingen van meer dan 4000 vliegvelden (METAR en TAF).

De beschikbare stations zijn de gele en rode punten op de kaart.

Ga met uw muis naar het station om de naam te zien.

Klik dan om waarnemingen en weersverwachtingen te zien.

kaart wijzigen: klik op de groene knoppen met een zwart kruis om in te zoomen, op de groene knop met een streepje om uit te zoomen of op de groene pijlen voor aangrenzende kaarten.


METAR-TAF: